Dades meteomassalio
Diari Summary for Marc 22, 2017 Units:  Metric    English   Both
« Previous Day
Next Day »
Diari Semanal Mensual Anual Personalitzat
  Maxima: Minima: Mijana:
Temperatura: 16.6 °C 5.5 °C 11.1 °C
Rosada: 8.8 °C 3.1 °C 5.5 °C
Humitat: 87 % 55 % 69 %
Velocitat del vent: 31.5 km/h 0.0 km/h 7.1 km/h
Racha vent: 31.5 km/h - -
Vent:- - South
Pressio: 1016.8 hPa 1006.7 hPa -
Pluja: 0.0 mm    
Historical Graphs
 
 
Tabular Data for Marc 22, 2017
Time Temperature Dew Point Pressure Wind Wind Speed Wind Gust Humidity Rainfall Rate (Hourly) solar Conditions
00:03 10.9 °C 4.8 °C 1016.8 hPa West 18.5 km/h 18.5 km/h 66 % 0.0 mm 0.0 W/m2 CLR
00:08 10.9 °C 4.8 °C 1016.8 hPa WNW 20.4 km/h 20.4 km/h 66 % 0.0 mm 0.0 W/m2 CLR
00:13 10.8 °C 4.7 °C 1016.8 hPa West 18.5 km/h 18.5 km/h 66 % 0.0 mm 0.0 W/m2 CLR
00:18 10.9 °C 4.8 °C 1016.8 hPa West 22.2 km/h 22.2 km/h 66 % 0.0 mm 0.0 W/m2 CLR
00:23 10.8 °C 4.9 °C 1016.8 hPa WNW 18.5 km/h 18.5 km/h 67 % 0.0 mm 0.0 W/m2 CLR
00:29 10.8 °C 4.9 °C 1016.8 hPa West 16.7 km/h 16.7 km/h 67 % 0.0 mm 0.0 W/m2 CLR
00:34 10.8 °C 4.9 °C 1016.8 hPa West 16.7 km/h 16.7 km/h 67 % 0.0 mm 0.0 W/m2 CLR
00:39 10.8 °C 4.9 °C 1016.5 hPa West 20.4 km/h 20.4 km/h 67 % 0.0 mm 0.0 W/m2 CLR
00:44 10.8 °C 5.1 °C 1016.5 hPa West 20.4 km/h 20.4 km/h 68 % 0.0 mm 0.0 W/m2 CLR
00:49 10.7 °C 5.0 °C 1016.5 hPa West 18.5 km/h 18.5 km/h 68 % 0.0 mm 0.0 W/m2 CLR
00:54 10.7 °C 5.0 °C 1016.5 hPa West 22.2 km/h 22.2 km/h 68 % 0.0 mm 0.0 W/m2 CLR
00:59 10.7 °C 5.0 °C 1016.5 hPa West 20.4 km/h 20.4 km/h 68 % 0.0 mm 0.0 W/m2 CLR
01:04 10.6 °C 4.9 °C 1016.5 hPa West 18.5 km/h 18.5 km/h 68 % 0.0 mm 0.0 W/m2 CLR
01:09 10.6 °C 4.9 °C 1016.5 hPa West 16.7 km/h 16.7 km/h 68 % 0.0 mm 0.0 W/m2 CLR
01:14 10.6 °C 5.1 °C 1016.5 hPa WNW 16.7 km/h 16.7 km/h 69 % 0.0 mm 0.0 W/m2 CLR
01:19 10.5 °C 5.1 °C 1016.5 hPa WNW 14.8 km/h 14.8 km/h 69 % 0.0 mm 0.0 W/m2 CLR
01:24 10.4 °C 5.0 °C 1016.5 hPa WNW 16.7 km/h 16.7 km/h 69 % 0.0 mm 0.0 W/m2 CLR
01:29 10.4 °C 4.9 °C 1016.5 hPa WNW 18.5 km/h 18.5 km/h 69 % 0.0 mm 0.0 W/m2 CLR
01:34 10.4 °C 4.9 °C 1016.1 hPa WNW 18.5 km/h 18.5 km/h 69 % 0.0 mm 0.0 W/m2 CLR
01:39 10.5 °C 5.1 °C 1016.1 hPa WNW 18.5 km/h 18.5 km/h 69 % 0.0 mm 0.0 W/m2 CLR
01:44 10.6 °C 4.9 °C 1016.1 hPa WNW 18.5 km/h 18.5 km/h 68 % 0.0 mm 0.0 W/m2 CLR
01:49 10.6 °C 5.1 °C 1016.1 hPa WNW 14.8 km/h 14.8 km/h 69 % 0.0 mm 0.0 W/m2 CLR
01:54 10.4 °C 5.0 °C 1016.1 hPa NW 14.8 km/h 14.8 km/h 69 % 0.0 mm 0.0 W/m2 CLR
01:59 10.3 °C 4.8 °C 1016.1 hPa WNW 14.8 km/h 14.8 km/h 69 % 0.0 mm 0.0 W/m2 CLR
02:04 10.2 °C 4.7 °C 1016.1 hPa WNW 16.7 km/h 16.7 km/h 69 % 0.0 mm 0.0 W/m2 CLR
02:09 10.2 °C 4.8 °C 1016.1 hPa WNW 19.3 km/h 19.3 km/h 69 % 0.0 mm 0.0 W/m2 CLR
02:14 10.2 °C 4.8 °C 1016.1 hPa WNW 13.0 km/h 13.0 km/h 69 % 0.0 mm 0.0 W/m2 CLR
02:19 10.2 °C 4.7 °C 1016.1 hPa WNW 5.6 km/h 5.6 km/h 69 % 0.0 mm 0.0 W/m2 CLR
02:24 10.1 °C 4.6 °C 1016.1 hPa West 5.6 km/h 5.6 km/h 69 % 0.0 mm 0.0 W/m2 CLR
02:29 10.0 °C 4.6 °C 1016.1 hPa WNW 11.1 km/h 11.1 km/h 69 % 0.0 mm 0.0 W/m2 CLR
02:34 10.0 °C 4.6 °C 1016.1 hPa West 18.5 km/h 18.5 km/h 69 % 0.0 mm 0.0 W/m2 CLR
02:39 10.1 °C 4.7 °C 1016.1 hPa West 16.1 km/h 16.1 km/h 69 % 0.0 mm 0.0 W/m2 CLR
02:40 10.1 °C 4.6 °C 1016.1 hPa West 16.7 km/h 16.7 km/h 69 % 0.0 mm 0.0 W/m2 CLR
02:45 10.1 °C 4.6 °C 1016.1 hPa WSW 14.8 km/h 14.8 km/h 69 % 0.0 mm 0.0 W/m2 CLR
02:50 10.0 °C 4.6 °C 1015.8 hPa West 11.3 km/h 11.3 km/h 69 % 0.0 mm 0.0 W/m2 CLR
02:55 9.9 °C 4.7 °C 1015.8 hPa WSW 13.0 km/h 13.0 km/h 70 % 0.0 mm 0.0 W/m2 CLR
03:00 9.8 °C 4.6 °C 1015.8 hPa West 5.6 km/h 5.6 km/h 70 % 0.0 mm 0.0 W/m2 CLR
03:05 9.7 °C 4.4 °C 1015.8 hPa WSW 7.4 km/h 7.4 km/h 70 % 0.0 mm 0.0 W/m2 CLR
03:10 9.3 °C 4.3 °C 1015.5 hPa WSW 7.4 km/h 7.4 km/h 71 % 0.0 mm 0.0 W/m2 CLR
03:15 9.2 °C 4.4 °C 1015.5 hPa West 5.6 km/h 5.6 km/h 72 % 0.0 mm 0.0 W/m2 CLR
03:20 9.1 °C 4.5 °C 1015.5 hPa West 7.4 km/h 7.4 km/h 73 % 0.0 mm 0.0 W/m2 CLR
03:25 9.1 °C 4.4 °C 1015.5 hPa West 5.6 km/h 5.6 km/h 73 % 0.0 mm 0.0 W/m2 CLR
03:30 8.8 °C 4.2 °C 1015.5 hPa WNW 7.4 km/h 7.4 km/h 73 % 0.0 mm 0.0 W/m2 CLR
03:35 8.6 °C 4.2 °C 1015.5 hPa West 5.6 km/h 5.6 km/h 74 % 0.0 mm 0.0 W/m2 CLR
03:40 8.8 °C 4.4 °C 1015.5 hPa West 5.6 km/h 5.6 km/h 74 % 0.0 mm 0.0 W/m2 CLR
03:45 8.9 °C 4.5 °C 1015.5 hPa WSW 5.6 km/h 5.6 km/h 74 % 0.0 mm 0.0 W/m2 CLR
03:50 8.9 °C 4.3 °C 1015.5 hPa Calm     73 % 0.0 mm 0.0 W/m2 CLR
03:55 8.7 °C 4.2 °C 1015.5 hPa Calm     73 % 0.0 mm 0.0 W/m2 CLR
04:00 8.4 °C 4.0 °C 1015.5 hPa Calm     74 % 0.0 mm 0.0 W/m2 CLR
04:05 7.9 °C 3.8 °C 1015.5 hPa Calm     75 % 0.0 mm 0.0 W/m2 CLR
04:10 7.6 °C 3.8 °C 1015.5 hPa Calm     77 % 0.0 mm 0.0 W/m2 CLR
04:15 7.4 °C 3.8 °C 1015.5 hPa Calm     78 % 0.0 mm 0.0 W/m2 CLR
04:20 7.3 °C 3.9 °C 1015.5 hPa Calm     79 % 0.0 mm 0.0 W/m2 CLR
04:25 7.1 °C 3.7 °C 1015.5 hPa Calm     79 % 0.0 mm 0.0 W/m2 CLR
04:30 6.6 °C 3.4 °C 1015.1 hPa Calm     80 % 0.0 mm 0.0 W/m2 CLR
04:35 6.4 °C 3.6 °C 1015.1 hPa Calm     82 % 0.0 mm 0.0 W/m2 CLR
04:40 6.5 °C 3.8 °C 1015.1 hPa Calm     83 % 0.0 mm 0.0 W/m2 CLR
04:45 6.6 °C 3.8 °C 1015.1 hPa Calm     82 % 0.0 mm 0.0 W/m2 CLR
04:50 6.5 °C 3.7 °C 1015.1 hPa Calm     82 % 0.0 mm 0.0 W/m2 CLR
04:55 6.3 °C 3.5 °C 1015.1 hPa Calm     82 % 0.0 mm 0.0 W/m2 CLR
05:00 6.2 °C 3.4 °C 1015.1 hPa Calm     82 % 0.0 mm 0.0 W/m2 CLR
05:05 6.1 °C 3.4 °C 1015.1 hPa Calm     83 % 0.0 mm 0.0 W/m2 CLR
05:10 6.0 °C 3.3 °C 1015.1 hPa Calm     83 % 0.0 mm 0.0 W/m2 CLR
05:15 5.9 °C 3.2 °C 1015.1 hPa Calm     83 % 0.0 mm 0.0 W/m2 CLR
05:20 5.8 °C 3.3 °C 1015.1 hPa Calm     84 % 0.0 mm 0.0 W/m2 CLR
05:25 5.6 °C 3.1 °C 1015.1 hPa Calm     84 % 0.0 mm 0.0 W/m2 CLR
05:30 5.6 °C 3.3 °C 1014.8 hPa Calm     85 % 0.0 mm 0.0 W/m2 CLR
05:35 5.6 °C 3.2 °C 1014.8 hPa Calm     85 % 0.0 mm 0.0 W/m2 CLR
05:40 5.6 °C 3.2 °C 1014.8 hPa Calm     85 % 0.0 mm 0.0 W/m2 CLR
05:45 5.6 °C 3.2 °C 1014.8 hPa Calm     85 % 0.0 mm 0.0 W/m2 CLR
05:50 5.6 °C 3.2 °C 1014.8 hPa Calm     85 % 0.0 mm 0.0 W/m2 CLR
05:55 5.6 °C 3.3 °C 1014.8 hPa Calm     85 % 0.0 mm 0.0 W/m2 CLR
06:01 5.6 °C 3.3 °C 1014.8 hPa Calm     85 % 0.0 mm 0.0 W/m2 CLR
06:06 5.6 °C 3.2 °C 1014.8 hPa Calm     85 % 0.0 mm 0.0 W/m2 CLR
06:11 5.6 °C 3.4 °C 1014.8 hPa Calm     86 % 0.0 mm 0.0 W/m2 CLR
06:16 5.6 °C 3.4 °C 1014.8 hPa Calm     86 % 0.0 mm 0.0 W/m2 CLR
06:20 5.5 °C 3.3 °C 1014.4 hPa Calm     86 % 0.0 mm 0.0 W/m2 CLR
06:26 5.5 °C 3.3 °C 1014.8 hPa Calm     86 % 0.0 mm 0.0 W/m2 CLR
06:31 5.5 °C 3.3 °C 1014.8 hPa Calm     86 % 0.0 mm 0.0 W/m2 CLR
06:36 5.5 °C 3.3 °C 1014.4 hPa Calm     86 % 0.0 mm 0.0 W/m2 CLR
06:41 5.6 °C 3.4 °C 1014.4 hPa Calm     86 % 0.0 mm 0.0 W/m2 CLR
06:46 5.6 °C 3.6 °C 1014.4 hPa Calm     87 % 0.0 mm 0.0 W/m2 CLR
06:51 5.6 °C 3.6 °C 1014.4 hPa Calm     87 % 0.0 mm 0.0 W/m2 OVC
06:56 5.7 °C 3.7 °C 1014.4 hPa Calm     87 % 0.0 mm 7.0 W/m2 OVC
07:01 5.7 °C 3.7 °C 1014.4 hPa Calm     87 % 0.0 mm 11.0 W/m2 OVC
07:06 5.8 °C 3.8 °C 1014.4 hPa Calm     87 % 0.0 mm 12.0 W/m2 BKN
07:11 5.9 °C 3.7 °C 1014.4 hPa Calm     86 % 0.0 mm 16.0 W/m2 BKN
07:16 5.9 °C 3.8 °C 1014.4 hPa Calm     86 % 0.0 mm 18.0 W/m2 BKN
07:22 6.1 °C 4.1 °C 1014.4 hPa Calm     87 % 0.0 mm 21.0 W/m2 BKN
07:27 6.3 °C 4.2 °C 1014.4 hPa Calm     86 % 0.0 mm 18.0 W/m2 BKN
07:32 6.4 °C 4.3 °C 1014.4 hPa Calm     86 % 0.0 mm 16.0 W/m2 BKN
07:37 6.5 °C 4.2 °C 1014.8 hPa Calm     85 % 0.0 mm 16.0 W/m2 BKN
07:42 6.5 °C 4.2 °C 1014.4 hPa Calm     85 % 0.0 mm 19.0 W/m2 BKN
07:47 6.5 °C 4.2 °C 1014.8 hPa Calm     85 % 0.0 mm 23.0 W/m2 BKN
07:52 6.6 °C 4.4 °C 1014.8 hPa Calm     86 % 0.0 mm 26.0 W/m2 BKN
07:57 6.7 °C 4.5 °C 1014.8 hPa Calm     86 % 0.0 mm 26.0 W/m2 BKN
08:02 6.7 °C 4.6 °C 1014.8 hPa Calm     86 % 0.0 mm 26.0 W/m2 BKN
08:07 6.7 °C 4.6 °C 1014.8 hPa Calm     86 % 0.0 mm 28.0 W/m2 BKN
08:12 6.8 °C 4.6 °C 1014.8 hPa Calm     86 % 0.0 mm 30.0 W/m2 BKN
08:17 6.9 °C 4.7 °C 1014.8 hPa Calm     86 % 0.0 mm 30.0 W/m2 BKN
08:22 7.0 °C 4.8 °C 1014.8 hPa Calm     86 % 0.0 mm 35.0 W/m2 BKN
08:27 7.1 °C 4.7 °C 1015.1 hPa Calm     85 % 0.0 mm 58.0 W/m2 BKN
08:32 7.1 °C 4.8 °C 1014.8 hPa Calm     85 % 0.0 mm 69.0 W/m2 SCT
08:37 7.2 °C 4.8 °C 1014.8 hPa Calm     85 % 0.0 mm 63.0 W/m2 SCT
08:42 7.3 °C 4.9 °C 1014.8 hPa Calm     85 % 0.0 mm 70.0 W/m2 FEW
08:47 7.4 °C 5.1 °C 1015.1 hPa Calm     85 % 0.0 mm 81.0 W/m2 FEW
08:52 7.4 °C 5.1 °C 1014.8 hPa Calm     85 % 0.0 mm 81.0 W/m2 FEW
08:57 7.6 °C 5.2 °C 1014.8 hPa Calm     85 % 0.0 mm 79.0 W/m2 FEW
09:02 7.7 °C 5.1 °C 1014.8 hPa Calm     84 % 0.0 mm 88.0 W/m2 FEW
09:07 7.8 °C 5.3 °C 1014.8 hPa Calm     84 % 0.0 mm 90.0 W/m2 CLR
09:12 8.0 °C 5.4 °C 1014.8 hPa Calm     84 % 0.0 mm 90.0 W/m2 CLR
09:17 8.1 °C 5.6 °C 1015.1 hPa Calm     84 % 0.0 mm 109.0 W/m2 CLR
09:22 8.3 °C 5.6 °C 1015.1 hPa Calm     83 % 0.0 mm 127.0 W/m2 CLR
09:27 8.4 °C 5.9 °C 1015.1 hPa Calm     84 % 0.0 mm 142.0 W/m2 CLR
09:32 8.7 °C 5.9 °C 1014.8 hPa Calm     83 % 0.0 mm 158.0 W/m2 CLR
09:37 8.9 °C 6.0 °C 1015.1 hPa Calm     82 % 0.0 mm 167.0 W/m2 CLR
09:42 9.1 °C 5.9 °C 1014.8 hPa Calm     81 % 0.0 mm 186.0 W/m2 CLR
09:47 9.3 °C 6.4 °C 1014.8 hPa Calm     82 % 0.0 mm 241.0 W/m2 CLR
09:52 9.7 °C 6.6 °C 1014.8 hPa Calm     81 % 0.0 mm 251.0 W/m2 CLR
09:57 10.0 °C 6.7 °C 1014.8 hPa Calm     80 % 0.0 mm 274.0 W/m2 CLR
10:02 10.3 °C 6.8 °C 1014.8 hPa Calm     79 % 0.0 mm 396.0 W/m2 CLR
10:07 10.8 °C 6.9 °C 1014.8 hPa Calm     77 % 0.0 mm 323.0 W/m2 CLR
10:12 11.2 °C 6.9 °C 1014.8 hPa Calm     75 % 0.0 mm 255.0 W/m2 CLR
10:17 11.6 °C 5.9 °C 1014.8 hPa NW 16.7 km/h 16.7 km/h 68 % 0.0 mm 227.0 W/m2 CLR
10:22 11.9 °C 5.5 °C 1014.8 hPa NNW 9.3 km/h 9.3 km/h 65 % 0.0 mm 229.0 W/m2 CLR
10:27 11.9 °C 5.1 °C 1014.4 hPa NW 9.3 km/h 9.3 km/h 63 % 0.0 mm 221.0 W/m2 CLR
10:32 11.9 °C 5.3 °C 1014.4 hPa NW 5.6 km/h 5.6 km/h 64 % 0.0 mm 234.0 W/m2 CLR
10:37 12.1 °C 5.4 °C 1014.1 hPa Calm     64 % 0.0 mm 262.0 W/m2 CLR
10:42 12.3 °C 5.7 °C 1014.1 hPa North 5.6 km/h 5.6 km/h 64 % 0.0 mm 267.0 W/m2 CLR
10:47 12.4 °C 5.6 °C 1014.4 hPa North 7.4 km/h 7.4 km/h 63 % 0.0 mm 243.0 W/m2 CLR
10:52 12.3 °C 5.3 °C 1014.4 hPa Calm     62 % 0.0 mm 234.0 W/m2 CLR
10:57 12.4 °C 5.6 °C 1014.4 hPa NW 7.4 km/h 7.4 km/h 63 % 0.0 mm 232.0 W/m2 CLR
11:02 12.3 °C 5.2 °C 1014.4 hPa NNW 5.6 km/h 5.6 km/h 62 % 0.0 mm 225.0 W/m2 CLR
11:07 12.2 °C 5.4 °C 1014.4 hPa Calm     63 % 0.0 mm 218.0 W/m2 CLR
11:12 12.3 °C 5.7 °C 1014.1 hPa Calm     64 % 0.0 mm 218.0 W/m2 CLR
11:17 12.3 °C 5.5 °C 1014.1 hPa Calm     63 % 0.0 mm 216.0 W/m2 CLR
11:22 12.3 °C 5.5 °C 1014.1 hPa Calm     63 % 0.0 mm 218.0 W/m2 CLR
11:27 12.3 °C 5.3 °C 1014.4 hPa NE 5.6 km/h 5.6 km/h 62 % 0.0 mm 230.0 W/m2 CLR
11:32 12.4 °C 5.3 °C 1014.1 hPa Calm     62 % 0.0 mm 237.0 W/m2 CLR
11:37 12.4 °C 5.3 °C 1014.1 hPa Calm     62 % 0.0 mm 227.0 W/m2 CLR
11:42 12.4 °C 5.3 °C 1014.1 hPa North 5.6 km/h 5.6 km/h 62 % 0.0 mm 214.0 W/m2 CLR
11:47 12.4 °C 5.3 °C 1014.1 hPa Calm     62 % 0.0 mm 213.0 W/m2 CLR
11:52 12.3 °C 5.0 °C 1014.1 hPa NE 7.4 km/h 7.4 km/h 61 % 0.0 mm 220.0 W/m2 CLR
11:57 12.3 °C 5.0 °C 1013.8 hPa Calm     61 % 0.0 mm 220.0 W/m2 CLR
12:02 12.3 °C 4.8 °C 1013.8 hPa ENE 7.4 km/h 7.4 km/h 60 % 0.0 mm 234.0 W/m2 CLR
12:07 12.3 °C 4.8 °C 1013.8 hPa NE 5.6 km/h 5.6 km/h 60 % 0.0 mm 241.0 W/m2 CLR
12:12 12.3 °C 4.6 °C 1013.8 hPa NNE 6.4 km/h 6.4 km/h 59 % 0.0 mm 250.0 W/m2 CLR
12:17 12.3 °C 5.0 °C 1013.8 hPa NE 5.6 km/h 5.6 km/h 61 % 0.0 mm 276.0 W/m2 CLR
12:22 12.4 °C 4.9 °C 1013.8 hPa NE 7.4 km/h 7.4 km/h 60 % 0.0 mm 327.0 W/m2 CLR
12:27 12.6 °C 5.0 °C 1013.8 hPa ENE 9.3 km/h 9.3 km/h 60 % 0.0 mm 346.0 W/m2 CLR
12:32 12.6 °C 5.0 °C 1013.8 hPa NE 9.3 km/h 9.3 km/h 60 % 0.0 mm 327.0 W/m2 CLR
12:37 12.5 °C 4.9 °C 1013.4 hPa NNE 7.4 km/h 7.4 km/h 60 % 0.0 mm 329.0 W/m2 CLR
12:42 12.5 °C 4.9 °C 1013.1 hPa East 9.3 km/h 9.3 km/h 60 % 0.0 mm 373.0 W/m2 CLR
12:47 12.4 °C 5.1 °C 1013.1 hPa NE 5.6 km/h 5.6 km/h 61 % 0.0 mm 455.0 W/m2 CLR
12:52 12.5 °C 4.9 °C 1013.1 hPa ENE 7.4 km/h 7.4 km/h 60 % 0.0 mm 406.0 W/m2 CLR
12:57 12.8 °C 5.4 °C 1013.1 hPa NE 7.4 km/h 7.4 km/h 61 % 0.0 mm 439.0 W/m2 CLR
13:02 12.9 °C 5.1 °C 1013.1 hPa ENE 5.6 km/h 5.6 km/h 59 % 0.0 mm 376.0 W/m2 CLR
13:07 13.1 °C 5.2 °C 1013.1 hPa ENE 4.8 km/h 4.8 km/h 59 % 0.0 mm 388.0 W/m2 CLR
13:12 13.1 °C 5.3 °C 1013.1 hPa NNE 9.3 km/h 9.3 km/h 59 % 0.0 mm 378.0 W/m2 CLR
13:17 13.1 °C 5.3 °C 1012.8 hPa NE 5.6 km/h 5.6 km/h 59 % 0.0 mm 320.0 W/m2 CLR
13:22 13.1 °C 5.7 °C 1012.8 hPa Calm     61 % 0.0 mm 292.0 W/m2 CLR
13:27 13.0 °C 5.7 °C 1012.8 hPa NE 7.4 km/h 7.4 km/h 61 % 0.0 mm 330.0 W/m2 CLR
13:32 13.0 °C 5.4 °C 1012.4 hPa NE 5.6 km/h 5.6 km/h 60 % 0.0 mm 302.0 W/m2 CLR
13:37 13.0 °C 5.4 °C 1012.4 hPa NE 5.6 km/h 5.6 km/h 60 % 0.0 mm 295.0 W/m2 CLR
13:42 12.9 °C 5.3 °C 1012.4 hPa Calm     60 % 0.0 mm 292.0 W/m2 CLR
13:47 12.8 °C 5.5 °C 1012.4 hPa North 5.6 km/h   61 % 0.0 mm 334.0 W/m2 CLR
13:52 12.9 °C 5.6 °C 1012.4 hPa Calm     61 % 0.0 mm 316.0 W/m2 CLR
13:57 13.1 °C 5.2 °C 1012.4 hPa ENE 3.7 km/h   59 % 0.0 mm 299.0 W/m2 CLR
14:02 13.2 °C 5.3 °C 1012.1 hPa NE 5.6 km/h 5.6 km/h 59 % 0.0 mm 301.0 W/m2 CLR
14:07 13.2 °C 5.3 °C 1012.1 hPa NE 5.6 km/h 5.6 km/h 59 % 0.0 mm 260.0 W/m2 CLR
14:12 13.2 °C 5.3 °C 1011.7 hPa Calm     59 % 0.0 mm 271.0 W/m2 CLR
14:17 13.2 °C 5.1 °C 1011.7 hPa NE 3.7 km/h   58 % 0.0 mm 248.0 W/m2 CLR
14:22 13.2 °C 5.4 °C 1011.7 hPa NE 5.6 km/h 5.6 km/h 59 % 0.0 mm 272.0 W/m2 CLR
14:28 13.2 °C 5.6 °C 1011.7 hPa NNE 5.6 km/h 5.6 km/h 60 % 0.0 mm 341.0 W/m2 CLR
14:33 13.4 °C 5.8 °C 1011.7 hPa NNE 5.6 km/h 5.6 km/h 60 % 0.0 mm 373.0 W/m2 CLR
14:38 13.6 °C 5.7 °C 1011.4 hPa ENE 9.3 km/h 9.3 km/h 59 % 0.0 mm 417.0 W/m2 CLR
14:43 13.9 °C 6.3 °C 1011.4 hPa NNE 8.0 km/h 8.0 km/h 60 % 0.0 mm 784.0 W/m2 CLR
14:48 14.2 °C 6.3 °C 1011.1 hPa Calm   0.2 km/h 59 % 0.0 mm 424.0 W/m2 CLR
14:53 14.2 °C 5.8 °C 1011.1 hPa NE 5.6 km/h 5.6 km/h 57 % 0.0 mm 396.0 W/m2 CLR
14:58 14.1 °C 5.9 °C 1011.1 hPa ENE 8.0 km/h 8.0 km/h 58 % 0.0 mm 403.0 W/m2 CLR
15:03 14.2 °C 6.0 °C 1010.7 hPa ENE 5.6 km/h 5.6 km/h 58 % 0.0 mm 341.0 W/m2 CLR
15:08 14.2 °C 5.8 °C 1010.7 hPa ENE 9.3 km/h 9.3 km/h 57 % 0.0 mm 450.0 W/m2 CLR
15:13 14.3 °C 6.1 °C 1010.4 hPa ENE 7.4 km/h 7.4 km/h 58 % 0.0 mm 701.0 W/m2 CLR
15:18 14.6 °C 6.4 °C 1010.4 hPa East 13.0 km/h 13.0 km/h 58 % 0.0 mm 698.0 W/m2 CLR
15:23 14.7 °C 6.5 °C 1010.0 hPa East 9.3 km/h 9.3 km/h 58 % 0.0 mm 664.0 W/m2 CLR
15:28 15.0 °C 6.3 °C 1010.0 hPa ESE 13.0 km/h 13.0 km/h 56 % 0.0 mm 628.0 W/m2 CLR
15:33 15.1 °C 6.3 °C 1009.7 hPa ESE 14.8 km/h 14.8 km/h 56 % 0.0 mm 610.0 W/m2 CLR
15:38 15.2 °C 6.4 °C 1009.7 hPa SE 13.0 km/h 13.0 km/h 56 % 0.0 mm 598.0 W/m2 CLR
15:43 15.3 °C 6.3 °C 1009.7 hPa East 16.7 km/h 16.7 km/h 55 % 0.0 mm 584.0 W/m2 CLR
15:48 15.2 °C 6.2 °C 1009.4 hPa ENE 13.0 km/h 13.0 km/h 55 % 0.0 mm 564.0 W/m2 CLR
15:53 15.4 °C 6.7 °C 1009.4 hPa ENE 14.8 km/h 14.8 km/h 56 % 0.0 mm 555.0 W/m2 CLR
15:58 15.6 °C 6.8 °C 1009.4 hPa East 7.4 km/h 7.4 km/h 56 % 0.0 mm 548.0 W/m2 CLR
16:03 15.8 °C 7.0 °C 1009.0 hPa East 14.8 km/h 14.8 km/h 56 % 0.0 mm 543.0 W/m2 CLR
16:08 15.9 °C 6.8 °C 1008.7 hPa East 13.0 km/h 13.0 km/h 55 % 0.0 mm 541.0 W/m2 CLR
16:13 15.9 °C 6.9 °C 1008.7 hPa ESE 13.0 km/h 13.0 km/h 55 % 0.0 mm 181.0 W/m2 CLR
16:18 15.8 °C 7.3 °C 1008.7 hPa East 9.3 km/h 9.3 km/h 57 % 0.0 mm 169.0 W/m2 CLR
16:23 15.8 °C 7.6 °C 1008.4 hPa ESE 11.1 km/h 11.1 km/h 58 % 0.0 mm 193.0 W/m2 CLR
16:28 15.9 °C 8.2 °C 1008.4 hPa ESE 13.0 km/h 13.0 km/h 60 % 0.0 mm 225.0 W/m2 CLR
16:33 16.1 °C 8.6 °C 1008.0 hPa East 9.3 km/h 9.3 km/h 61 % 0.0 mm 413.0 W/m2 CLR
16:38 16.3 °C 8.5 °C 1008.0 hPa ESE 14.8 km/h 14.8 km/h 60 % 0.0 mm 466.0 W/m2 CLR
16:43 16.4 °C 8.8 °C 1008.0 hPa ESE 7.4 km/h 7.4 km/h 61 % 0.0 mm 425.0 W/m2 CLR
16:48 16.6 °C 8.8 °C 1007.7 hPa East 11.3 km/h 11.3 km/h 60 % 0.0 mm 399.0 W/m2 CLR
16:53 16.6 °C 8.8 °C 1007.7 hPa ENE 5.6 km/h 5.6 km/h 60 % 0.0 mm 294.0 W/m2 CLR
16:58 16.6 °C 8.6 °C 1007.7 hPa ESE 13.0 km/h 13.0 km/h 59 % 0.0 mm 360.0 W/m2 CLR
17:03 16.6 °C 8.6 °C 1007.7 hPa East 14.8 km/h 14.8 km/h 59 % 0.0 mm 343.0 W/m2 CLR
17:08 16.5 °C 8.4 °C 1007.3 hPa ESE 16.1 km/h 16.1 km/h 59 % 0.0 mm 345.0 W/m2 CLR
17:13 16.4 °C 8.1 °C 1007.3 hPa East 16.7 km/h 16.7 km/h 58 % 0.0 mm 225.0 W/m2 CLR
17:18 16.3 °C 8.2 °C 1007.3 hPa ESE 24.1 km/h 24.1 km/h 59 % 0.0 mm 102.0 W/m2 CLR
17:23 16.1 °C 8.1 °C 1007.3 hPa East 18.5 km/h 18.5 km/h 59 % 0.0 mm 95.0 W/m2 CLR
17:28 16.2 °C 8.2 °C 1007.3 hPa ESE 16.1 km/h 16.1 km/h 59 % 0.0 mm 274.0 W/m2 CLR
17:33 16.4 °C 8.1 °C 1007.3 hPa ESE 18.5 km/h 18.5 km/h 58 % 0.0 mm 251.0 W/m2 CLR
17:38 16.4 °C 8.2 °C 1007.3 hPa ESE 20.4 km/h 20.4 km/h 58 % 0.0 mm 272.0 W/m2 CLR
17:43 16.4 °C 7.8 °C 1007.3 hPa ESE 18.5 km/h 18.5 km/h 57 % 0.0 mm 243.0 W/m2 CLR
17:48 16.3 °C 7.8 °C 1007.3 hPa East 18.5 km/h 18.5 km/h 57 % 0.0 mm 214.0 W/m2 CLR
17:53 16.2 °C 7.9 °C 1007.3 hPa ESE 18.5 km/h 18.5 km/h 58 % 0.0 mm 199.0 W/m2 CLR
17:58 16.1 °C 8.1 °C 1007.0 hPa ENE 11.1 km/h 11.1 km/h 59 % 0.0 mm 176.0 W/m2 CLR
18:03 16.1 °C 8.1 °C 1007.0 hPa East 14.8 km/h 14.8 km/h 59 % 0.0 mm 162.0 W/m2 CLR
18:08 16.1 °C 8.1 °C 1007.0 hPa East 20.4 km/h 20.4 km/h 59 % 0.0 mm 153.0 W/m2 CLR
18:13 16.1 °C 7.8 °C 1007.0 hPa ESE 16.7 km/h 16.7 km/h 58 % 0.0 mm 120.0 W/m2 CLR
18:18 16.0 °C 8.0 °C 1007.0 hPa ESE 16.7 km/h 16.7 km/h 59 % 0.0 mm 98.0 W/m2 CLR
18:19 16.0 °C 8.0 °C 1007.0 hPa SSE 13.0 km/h 13.0 km/h 59 % 0.0 mm 97.0 W/m2 CLR
18:24 15.8 °C 7.8 °C 1007.0 hPa ESE 14.8 km/h 14.8 km/h 59 % 0.0 mm 98.0 W/m2 CLR
18:29 15.7 °C 8.0 °C 1007.0 hPa ESE 13.0 km/h 13.0 km/h 60 % 0.0 mm 69.0 W/m2 FEW
18:34 15.6 °C 8.1 °C 1006.7 hPa SSE 13.0 km/h 13.0 km/h 61 % 0.0 mm 54.0 W/m2 SCT
18:39 15.4 °C 8.2 °C 1006.7 hPa ESE 11.1 km/h 11.1 km/h 62 % 0.0 mm 44.0 W/m2 BKN
18:44 15.3 °C 8.1 °C 1006.7 hPa SE 16.7 km/h 16.7 km/h 62 % 0.0 mm 35.0 W/m2 BKN
18:49 15.2 °C 7.7 °C 1007.0 hPa SSE 13.0 km/h 13.0 km/h 61 % 0.0 mm 26.0 W/m2 BKN
18:54 15.1 °C 7.9 °C 1007.0 hPa SE 16.7 km/h 16.7 km/h 62 % 0.0 mm 19.0 W/m2 BKN
18:59 15.0 °C 7.8 °C 1007.0 hPa SE 13.0 km/h 13.0 km/h 62 % 0.0 mm 12.0 W/m2 BKN
19:04 14.8 °C 7.8 °C 1007.0 hPa SE 11.1 km/h 11.1 km/h 63 % 0.0 mm 7.0 W/m2 BKN
19:09 14.7 °C 7.7 °C 1007.0 hPa SE 13.0 km/h 13.0 km/h 63 % 0.0 mm 5.0 W/m2 OVC
19:14 14.5 °C 7.8 °C 1007.0 hPa SSE 14.8 km/h 14.8 km/h 64 % 0.0 mm 0.0 W/m2 OVC
19:19 14.4 °C 7.9 °C 1007.3 hPa SE 14.8 km/h 14.8 km/h 65 % 0.0 mm 0.0 W/m2 OVC
19:24 14.3 °C 8.0 °C 1007.3 hPa SSE 14.8 km/h 14.8 km/h 66 % 0.0 mm 0.0 W/m2 CLR
19:29 14.2 °C 7.9 °C 1007.3 hPa SSE 13.0 km/h 13.0 km/h 66 % 0.0 mm 0.0 W/m2 CLR
19:34 14.0 °C 7.9 °C 1007.3 hPa SE 16.7 km/h 16.7 km/h 67 % 0.0 mm 0.0 W/m2 CLR
19:39 13.9 °C 7.8 °C 1007.3 hPa SSE 14.8 km/h 14.8 km/h 67 % 0.0 mm 0.0 W/m2 CLR
19:44 13.8 °C 7.8 °C 1007.3 hPa SSE 14.8 km/h 14.8 km/h 67 % 0.0 mm 0.0 W/m2 CLR
19:49 13.7 °C 7.7 °C 1007.3 hPa South 13.0 km/h 13.0 km/h 67 % 0.0 mm 0.0 W/m2 CLR
19:54 13.7 °C 7.7 °C 1007.3 hPa South 4.8 km/h 4.8 km/h 67 % 0.0 mm 0.0 W/m2 CLR
19:59 13.6 °C 7.4 °C 1007.7 hPa SSW 7.4 km/h 7.4 km/h 66 % 0.0 mm 0.0 W/m2 CLR
20:04 13.5 °C 7.3 °C 1007.7 hPa South 1.9 km/h   66 % 0.0 mm 0.0 W/m2 CLR
20:09 13.5 °C 7.1 °C 1007.7 hPa South 9.3 km/h 9.3 km/h 65 % 0.0 mm 0.0 W/m2 CLR
20:14 13.6 °C 7.1 °C 1007.7 hPa SSW 5.6 km/h 5.6 km/h 65 % 0.0 mm 0.0 W/m2 CLR
20:18 13.6 °C 7.1 °C 1007.7 hPa Calm     65 % 0.0 mm 0.0 W/m2 CLR
20:20 13.6 °C 6.9 °C 1007.7 hPa SSW 7.4 km/h 7.4 km/h 64 % 0.0 mm 0.0 W/m2 CLR
20:25 13.6 °C 6.7 °C 1007.7 hPa SW 5.6 km/h 5.6 km/h 63 % 0.0 mm 0.0 W/m2 CLR
20:26 13.6 °C 6.7 °C 1007.7 hPa SW 5.6 km/h 5.6 km/h 63 % 0.0 mm 0.0 W/m2 CLR
20:27 13.6 °C 6.7 °C 1007.7 hPa Calm     63 % 0.0 mm 0.0 W/m2 CLR
20:29 13.6 °C 6.7 °C 1007.7 hPa Calm     63 % 0.0 mm 0.0 W/m2 CLR
20:31 13.6 °C 6.7 °C 1007.7 hPa Calm     63 % 0.0 mm 0.0 W/m2 CLR
20:36 13.4 °C 6.5 °C 1007.7 hPa Calm     63 % 0.0 mm 0.0 W/m2 CLR
20:37 13.4 °C 6.5 °C 1007.7 hPa Calm     63 % 0.0 mm 0.0 W/m2 CLR
20:38 13.3 °C 6.4 °C 1007.7 hPa Calm     63 % 0.0 mm 0.0 W/m2 CLR
20:43 12.9 °C 6.5 °C 1008.0 hPa Calm     65 % 0.0 mm 0.0 W/m2 CLR
20:48 12.6 °C 6.4 °C 1008.0 hPa West 1.9 km/h   66 % 0.0 mm 0.0 W/m2 CLR
20:53 12.6 °C 6.4 °C 1008.0 hPa Calm     66 % 0.0 mm 0.0 W/m2 CLR
20:57 12.7 °C 6.3 °C 1008.0 hPa West 8.0 km/h 8.0 km/h 65 % 0.0 mm 0.0 W/m2 CLR
21:02 13.0 °C 6.3 °C 1008.0 hPa Calm     64 % 0.0 mm 0.0 W/m2 CLR
21:05 13.1 °C 6.4 °C 1008.4 hPa Calm     64 % 0.0 mm 0.0 W/m2 CLR
21:10 13.1 °C 6.2 °C 1008.4 hPa Calm     63 % 0.0 mm 0.0 W/m2 CLR
21:15 13.1 °C 6.2 °C 1008.4 hPa SSW 12.9 km/h 12.9 km/h 63 % 0.0 mm 0.0 W/m2 CLR
21:20 13.2 °C 6.1 °C 1008.4 hPa WSW 3.7 km/h   62 % 0.0 mm 0.0 W/m2 CLR
21:25 13.1 °C 5.9 °C 1008.4 hPa West 7.4 km/h 7.4 km/h 62 % 0.0 mm 0.0 W/m2 CLR
21:30 13.1 °C 6.0 °C 1008.7 hPa Calm     62 % 0.0 mm 0.0 W/m2 CLR
21:33 13.1 °C 6.0 °C 1008.7 hPa West 1.9 km/h 1.9 km/h 62 % 0.0 mm 0.0 W/m2 CLR
21:35 13.1 °C 6.0 °C 1008.7 hPa WSW 3.7 km/h 3.7 km/h 62 % 0.0 mm 0.0 W/m2 CLR
21:40 13.1 °C 5.8 °C 1008.7 hPa Calm     61 % 0.0 mm 0.0 W/m2 CLR
21:45 13.0 °C 5.7 °C 1008.7 hPa Calm     61 % 0.0 mm 0.0 W/m2 CLR
21:50 12.8 °C 5.7 °C 1008.7 hPa NNW 11.3 km/h 11.3 km/h 62 % 0.0 mm 0.0 W/m2 CLR
21:55 12.3 °C 5.9 °C 1009.4 hPa NW 20.4 km/h 20.4 km/h 65 % 0.0 mm 0.0 W/m2 CLR
22:00 12.1 °C 5.9 °C 1009.7 hPa North 31.5 km/h 31.5 km/h 66 % 0.0 mm 0.0 W/m2 CLR
22:05 11.4 °C 5.3 °C 1009.7 hPa North 22.2 km/h 22.2 km/h 66 % 0.0 mm 0.0 W/m2 CLR
22:08 11.0 °C 5.1 °C 1009.7 hPa North 29.6 km/h 29.6 km/h 67 % 0.0 mm 0.0 W/m2 CLR
22:10 10.7 °C 5.1 °C 1010.0 hPa North 24.1 km/h 24.1 km/h 68 % 0.0 mm 0.0 W/m2 CLR
22:15 10.1 °C 4.4 °C 1010.0 hPa NW 27.8 km/h 27.8 km/h 68 % 0.0 mm 0.0 W/m2 CLR
22:20 9.7 °C 4.5 °C 1010.0 hPa North 20.4 km/h 20.4 km/h 70 % 0.0 mm 0.0 W/m2 CLR
22:25 9.5 °C 4.3 °C 1010.0 hPa North 31.5 km/h 31.5 km/h 70 % 0.0 mm 0.0 W/m2 CLR
22:30 9.3 °C 4.1 °C 1010.0 hPa NNW 22.2 km/h 22.2 km/h 70 % 0.0 mm 0.0 W/m2 CLR
22:35 9.2 °C 4.1 °C 1010.0 hPa Calm     70 % 0.0 mm 0.0 W/m2 CLR
22:40 9.2 °C 4.2 °C 1010.0 hPa Calm     71 % 0.0 mm 0.0 W/m2 CLR
22:45 9.1 °C 4.1 °C 1010.0 hPa Calm     71 % 0.0 mm 0.0 W/m2 CLR
22:50 9.1 °C 4.1 °C 1010.4 hPa Calm     71 % 0.0 mm 0.0 W/m2 CLR
22:55 8.8 °C 4.1 °C 1010.4 hPa Calm     72 % 0.0 mm 0.0 W/m2 CLR
23:00 8.7 °C 4.1 °C 1010.0 hPa Calm     73 % 0.0 mm 0.0 W/m2 CLR
23:05 8.5 °C 3.9 °C 1010.4 hPa Calm     73 % 0.0 mm 0.0 W/m2 CLR
23:10 8.3 °C 3.9 °C 1010.4 hPa Calm     74 % 0.0 mm 0.0 W/m2 CLR
23:15 8.2 °C 4.1 °C 1010.4 hPa Calm     75 % 0.0 mm 0.0 W/m2 CLR
23:20 8.2 °C 4.1 °C 1010.4 hPa Calm     75 % 0.0 mm 0.0 W/m2 CLR
23:25 8.2 °C 4.1 °C 1010.4 hPa Calm     75 % 0.0 mm 0.0 W/m2 CLR
23:30 8.2 °C 4.1 °C 1010.7 hPa Calm     75 % 0.0 mm 0.0 W/m2 CLR
23:35 8.0 °C 3.8 °C 1010.7 hPa Calm     75 % 0.0 mm 0.0 W/m2 CLR
23:40 7.6 °C 3.8 °C 1010.7 hPa Calm     77 % 0.0 mm 0.0 W/m2 CLR
23:45 7.5 °C 3.9 °C 1010.7 hPa Calm     78 % 0.0 mm 0.0 W/m2 CLR
23:50 7.7 °C 4.1 °C 1010.7 hPa Calm     78 % 0.0 mm 0.0 W/m2 CLR
23:55 7.7 °C 4.1 °C 1010.7 hPa Calm     78 % 0.0 mm 0.0 W/m2 CLR
Lo Temps de Massalio
Compliments of Weather Underground - 1.25 mb